Time;durP1;ratioP1;P1;durP2;ratioP2;P2;SDS_P1;SDS_P2;PMS_P1;PMS_P2;Temp;Humidity;BMP_temperature;BMP_pressure;BME280_temperature;BME280_humidity;BME280_pressure;Samples;Min_cycle;Max_cycle;Signal;HPM_P1;HPM_P2
2022/11/28 00:01:09;;;;;;;12.27;9.40;;;6.20;99.90;;;;;;5023244;28;20038;-31
2022/11/28 00:03:35;;;;;;;10.27;8.35;;;6.20;99.90;;;;;;5018245;28;20040;-31
2022/11/28 00:06:06;;;;;;;11.27;8.68;;;6.20;99.90;;;;;;5014919;28;20407;-30
2022/11/28 00:08:32;;;;;;;11.38;8.38;;;6.20;99.90;;;;;;5011182;28;20049;-31
2022/11/28 00:11:05;;;;;;;12.15;8.52;;;6.30;99.90;;;;;;5010853;28;20034;-31
2022/11/28 00:13:32;;;;;;;11.43;8.70;;;6.30;99.90;;;;;;5013517;28;20052;-30
2022/11/28 00:15:59;;;;;;;11.07;9.27;;;6.30;99.90;;;;;;5019053;28;20034;-30
2022/11/28 00:18:25;;;;;;;13.05;8.60;;;6.30;99.90;;;;;;5015910;28;20121;-30
2022/11/28 00:20:52;;;;;;;9.13;8.13;;;6.30;99.90;;;;;;5031438;28;20490;-31
2022/11/28 00:23:17;;;;;;;12.77;9.05;;;6.30;99.90;;;;;;5013964;28;20057;-30
2022/11/28 00:25:43;;;;;;;11.43;8.40;;;6.30;99.90;;;;;;5021344;28;20046;-30
2022/11/28 00:28:09;;;;;;;10.52;8.27;;;6.30;99.90;;;;;;5024913;28;20033;-30
2022/11/28 00:30:36;;;;;;;12.30;8.15;;;6.30;99.90;;;;;;5024471;28;20084;-31
2022/11/28 00:33:03;;;;;;;10.70;8.85;;;6.40;99.90;;;;;;5011207;28;20045;-31
2022/11/28 00:35:29;;;;;;;10.85;8.45;;;6.30;99.90;;;;;;5021486;28;20041;-30
2022/11/28 00:37:55;;;;;;;11.15;9.00;;;6.30;99.90;;;;;;5021498;28;20088;-30
2022/11/28 00:40:21;;;;;;;13.88;9.05;;;6.40;99.90;;;;;;5011492;28;20030;-30
2022/11/28 00:42:47;;;;;;;12.35;8.73;;;6.40;99.90;;;;;;5022276;28;20121;-31
2022/11/28 00:45:12;;;;;;;13.07;9.00;;;6.40;99.90;;;;;;5018135;28;20180;-29
2022/11/28 00:47:38;;;;;;;12.20;8.55;;;6.40;99.90;;;;;;5023282;28;20033;-30
2022/11/28 00:50:04;;;;;;;11.40;8.60;;;6.40;99.90;;;;;;5014581;28;20044;-31
2022/11/28 00:52:33;;;;;;;10.32;8.18;;;6.40;99.90;;;;;;5014539;28;20045;-30
2022/11/28 00:54:59;;;;;;;10.85;8.30;;;6.40;99.90;;;;;;5014620;28;20037;-30
2022/11/28 00:57:25;;;;;;;11.23;8.20;;;6.40;99.90;;;;;;5014734;28;20403;-31
2022/11/28 00:59:50;;;;;;;11.23;8.35;;;6.40;99.90;;;;;;5027681;28;20045;-31
2022/11/28 01:02:16;;;;;;;12.73;8.60;;;6.40;99.90;;;;;;5027335;28;20125;-29
2022/11/28 01:04:42;;;;;;;9.77;8.48;;;6.40;99.90;;;;;;5014736;28;20132;-29
2022/11/28 01:07:08;;;;;;;9.93;7.68;;;6.40;99.90;;;;;;5029529;28;20087;-31
2022/11/28 01:09:34;;;;;;;11.38;8.40;;;6.50;99.90;;;;;;5014799;28;20038;-30
2022/11/28 01:12:00;;;;;;;9.70;7.70;;;6.50;99.90;;;;;;5014289;28;20042;-30
2022/11/28 01:14:26;;;;;;;10.25;8.60;;;6.50;99.90;;;;;;5017374;28;20406;-30
2022/11/28 01:16:52;;;;;;;9.95;8.45;;;6.50;99.90;;;;;;5004864;28;20526;-30
2022/11/28 01:19:18;;;;;;;9.38;7.45;;;6.50;99.90;;;;;;5015447;28;20038;-29
2022/11/28 01:21:44;;;;;;;11.23;9.35;;;6.60;99.90;;;;;;5028165;28;20488;-31
2022/11/28 01:24:10;;;;;;;10.38;8.10;;;6.50;99.90;;;;;;5014349;28;20042;-29
2022/11/28 01:26:39;;;;;;;9.55;8.10;;;6.60;99.90;;;;;;5019064;28;20038;-30
2022/11/28 01:29:04;;;;;;;10.98;8.82;;;6.60;99.90;;;;;;5014330;28;20044;-31
2022/11/28 01:31:30;;;;;;;11.68;8.10;;;6.60;99.90;;;;;;5014045;28;20038;-30
2022/11/28 01:33:57;;;;;;;9.68;8.30;;;6.60;99.90;;;;;;5020491;28;20034;-31
2022/11/28 01:36:24;;;;;;;10.77;8.90;;;6.60;99.90;;;;;;5008606;28;20514;-33
2022/11/28 01:38:50;;;;;;;12.00;8.18;;;6.60;99.90;;;;;;5022755;28;20037;-31
2022/11/28 01:41:20;;;;;;;14.88;8.77;;;6.60;99.90;;;;;;5015359;28;20038;-31
2022/11/28 01:43:59;;;;;;;10.95;8.05;;;6.60;99.90;;;;;;5021738;28;20517;-31
2022/11/28 01:46:25;;;;;;;11.40;8.48;;;6.70;99.90;;;;;;5017042;28;20034;-32
2022/11/28 01:48:51;;;;;;;10.80;9.13;;;6.70;99.90;;;;;;5019868;28;20034;-31
2022/11/28 01:51:17;;;;;;;10.52;8.38;;;6.70;99.90;;;;;;5014025;28;20042;-30
2022/11/28 01:53:46;;;;;;;9.95;8.45;;;6.70;99.90;;;;;;5013821;28;20500;-32
2022/11/28 01:56:19;;;;;;;11.15;8.93;;;6.70;99.90;;;;;;5015157;28;20484;-31
2022/11/28 01:58:49;;;;;;;12.18;8.73;;;6.80;99.90;;;;;;5024211;28;20041;-31
2022/11/28 02:01:16;;;;;;;12.82;9.20;;;6.80;99.90;;;;;;5013714;28;20044;-30
2022/11/28 02:03:45;;;;;;;12.10;8.35;;;6.80;99.90;;;;;;5013893;28;20511;-30
2022/11/28 02:06:13;;;;;;;11.48;8.95;;;6.80;99.90;;;;;;5015173;28;20484;-31
2022/11/28 02:08:40;;;;;;;10.65;8.75;;;6.80;99.90;;;;;;5016596;28;20041;-32
2022/11/28 02:11:25;;;;;;;9.70;8.00;;;6.80;99.90;;;;;;5013824;28;20433;-31
2022/11/28 02:14:03;;;;;;;11.98;8.50;;;6.90;99.90;;;;;;5028291;28;20100;-31
2022/11/28 02:16:47;;;;;;;10.80;8.38;;;6.90;99.90;;;;;;4999567;28;20038;-31
2022/11/28 02:19:47;;;;;;;10.57;9.10;;;6.90;99.90;;;;;;5014879;28;20465;-31
2022/11/28 02:22:22;;;;;;;12.43;9.30;;;6.90;99.90;;;;;;4998301;28;20076;-31
2022/11/28 02:24:51;;;;;;;10.23;8.90;;;6.90;99.90;;;;;;5016040;28;20582;-32
2022/11/28 02:27:29;;;;;;;11.20;9.05;;;6.90;99.90;;;;;;5024668;28;20112;-30
2022/11/28 02:30:03;;;;;;;10.52;8.73;;;6.90;99.90;;;;;;4997085;28;20038;-33
2022/11/28 02:32:44;;;;;;;12.82;9.68;;;6.90;99.90;;;;;;5019602;28;20438;-30
2022/11/28 02:35:25;;;;;;;11.93;9.27;;;6.90;99.90;;;;;;5006536;28;20045;-30
2022/11/28 02:38:17;;;;;;;13.57;9.02;;;6.90;99.90;;;;;;5018271;28;20087;-31
2022/11/28 02:41:05;;;;;;;14.98;9.15;;;6.90;99.90;;;;;;5012721;28;20053;-30
2022/11/28 02:43:43;;;;;;;12.02;9.13;;;6.90;99.90;;;;;;5024338;28;20049;-31
2022/11/28 02:46:20;;;;;;;10.20;8.88;;;7.00;99.90;;;;;;5012992;28;20081;-31
2022/11/28 02:48:54;;;;;;;11.48;9.70;;;7.00;99.90;;;;;;5008396;28;20487;-32
2022/11/28 02:51:36;;;;;;;11.48;9.55;;;7.00;99.90;;;;;;5027293;28;20376;-32
2022/11/28 02:54:04;;;;;;;10.05;8.57;;;7.00;99.90;;;;;;5016021;28;20042;-31
2022/11/28 02:56:30;;;;;;;14.05;9.50;;;7.00;99.90;;;;;;5015324;28;20045;-32
2022/11/28 02:58:56;;;;;;;13.00;8.85;;;7.00;99.90;;;;;;5012677;28;20117;-31
2022/11/28 03:01:29;;;;;;;10.98;8.75;;;7.00;99.90;;;;;;5015823;28;20487;-32
2022/11/28 03:04:57;;;;;;;10.82;8.90;;;7.10;99.90;;;;;;5015777;28;20042;-31
2022/11/28 03:08:01;;;;;;;13.25;10.48;;;7.10;99.90;;;;;;4994138;28;20030;-31
2022/11/28 03:10:28;;;;;;;10.75;9.45;;;7.10;99.90;;;;;;5013163;28;20472;-32
2022/11/28 03:13:21;;;;;;;10.95;9.65;;;7.10;99.90;;;;;;5015130;28;20046;-31
2022/11/28 03:16:15;;;;;;;12.27;9.82;;;7.10;99.90;;;;;;4993768;28;20046;-32
2022/11/28 03:18:58;;;;;;;11.20;9.25;;;7.10;99.90;;;;;;5017220;28;20041;-32
2022/11/28 03:21:27;;;;;;;14.38;10.23;;;7.20;99.90;;;;;;5026335;28;20077;-33
2022/11/28 03:24:25;;;;;;;14.80;9.93;;;7.20;99.90;;;;;;5014283;28;21939;-31
2022/11/28 03:27:22;;;;;;;12.73;11.18;;;7.20;99.90;;;;;;5010721;28;20042;-32
2022/11/28 03:30:00;;;;;;;11.77;10.13;;;7.30;99.90;;;;;;5018252;28;20046;-31
2022/11/28 03:32:30;;;;;;;13.77;10.60;;;7.30;99.90;;;;;;5005964;28;20383;-31
2022/11/28 03:35:22;;;;;;;14.80;10.77;;;7.30;99.90;;;;;;5012105;28;20104;-31
2022/11/28 03:37:56;;;;;;;12.75;10.82;;;7.40;99.90;;;;;;5005124;28;20091;-32
2022/11/28 03:40:27;;;;;;;15.32;11.82;;;7.40;99.90;;;;;;5013723;28;20033;-32
2022/11/28 03:43:12;;;;;;;15.55;10.88;;;7.40;99.90;;;;;;5014063;28;20038;-32
2022/11/28 03:45:42;;;;;;;13.38;11.27;;;7.40;99.90;;;;;;5026822;28;20043;-35
2022/11/28 03:48:31;;;;;;;16.60;11.68;;;7.50;99.90;;;;;;5017585;28;20411;-31
2022/11/28 03:51:12;;;;;;;15.45;12.93;;;7.50;99.90;;;;;;5012222;28;20100;-31
2022/11/28 03:53:48;;;;;;;16.48;12.75;;;7.50;99.90;;;;;;5003206;28;20038;-30
2022/11/28 03:56:20;;;;;;;15.57;12.80;;;7.50;99.90;;;;;;5012279;28;20092;-33
2022/11/28 03:59:22;;;;;;;16.73;12.48;;;7.50;99.90;;;;;;5012362;28;20069;-32
2022/11/28 04:01:53;;;;;;;19.27;13.50;;;7.50;99.90;;;;;;5012222;28;20432;-39
2022/11/28 04:04:38;;;;;;;15.73;13.50;;;7.50;99.90;;;;;;5012033;28;20120;-31
2022/11/28 04:07:09;;;;;;;;;;;7.50;99.90;;;;;;5017328;28;20399;-32
2022/11/28 04:09:49;;;;;;;16.13;13.88;;;7.50;99.90;;;;;;5023679;28;19972;-32
2022/11/28 04:12:33;;;;;;;21.20;14.80;;;7.50;99.90;;;;;;4996651;28;20498;-31
2022/11/28 04:15:43;;;;;;;21.35;15.73;;;7.50;99.90;;;;;;5025906;28;20098;-30
2022/11/28 04:18:24;;;;;;;19.15;16.15;;;7.50;99.90;;;;;;5011754;28;20033;-33
2022/11/28 04:21:17;;;;;;;21.45;16.65;;;7.50;99.90;;;;;;5014591;28;20034;-31
2022/11/28 04:23:45;;;;;;;21.70;18.02;;;7.50;99.90;;;;;;5014214;28;20513;-31
2022/11/28 04:26:27;;;;;;;23.42;17.98;;;7.50;99.90;;;;;;5018022;28;20103;-31
2022/11/28 04:28:55;;;;;;;22.73;18.55;;;7.50;99.90;;;;;;5013556;28;20033;-32
2022/11/28 04:31:23;;;;;;;25.95;19.25;;;7.50;99.90;;;;;;5011850;28;20033;-31
2022/11/28 04:33:53;;;;;;;25.88;20.00;;;7.40;99.90;;;;;;5012198;28;20475;-31
2022/11/28 04:36:23;;;;;;;24.60;18.88;;;7.40;99.90;;;;;;5014476;28;20065;-31
2022/11/28 04:38:55;;;;;;;25.83;19.70;;;7.40;99.90;;;;;;5011982;28;20034;-32
2022/11/28 04:41:36;;;;;;;24.50;18.98;;;7.40;99.90;;;;;;5025126;28;20045;-32
2022/11/28 04:44:26;;;;;;;27.10;19.27;;;7.50;99.90;;;;;;5023580;28;20187;-30
2022/11/28 04:46:54;;;;;;;24.80;20.40;;;7.50;99.90;;;;;;5018390;28;20038;-30
2022/11/28 04:49:21;;;;;;;23.58;18.75;;;7.50;99.90;;;;;;4997920;28;20034;-32
2022/11/28 04:52:13;;;;;;;23.75;18.73;;;7.50;99.90;;;;;;5018742;28;20050;-32
2022/11/28 04:55:12;;;;;;;25.23;18.38;;;7.60;99.90;;;;;;5027118;28;20046;-31
2022/11/28 04:57:52;;;;;;;23.67;18.98;;;7.60;99.90;;;;;;5025604;28;20037;-32
2022/11/28 05:00:20;;;;;;;23.17;18.60;;;7.60;99.90;;;;;;5002156;28;20125;-32
2022/11/28 05:02:50;;;;;;;23.70;18.42;;;7.60;99.90;;;;;;5009360;28;20507;-32
2022/11/28 05:05:20;;;;;;;20.85;18.65;;;7.60;99.90;;;;;;5024303;28;20376;-33
2022/11/28 05:07:45;;;;;;;25.58;19.17;;;7.60;99.90;;;;;;5025542;28;20449;-30
2022/11/28 05:10:12;;;;;;;24.90;19.33;;;7.60;99.90;;;;;;5011830;28;20046;-32
2022/11/28 05:12:38;;;;;;;20.88;17.98;;;7.60;99.90;;;;;;5017272;28;20046;-31
2022/11/28 05:15:05;;;;;;;25.20;19.65;;;7.70;99.90;;;;;;5011143;28;20515;-31
2022/11/28 05:17:31;;;;;;;22.63;19.17;;;7.60;99.90;;;;;;5022673;28;20049;-31
2022/11/28 05:19:57;;;;;;;25.48;18.98;;;7.60;99.90;;;;;;5014313;28;20128;-31
2022/11/28 05:22:23;;;;;;;22.08;19.00;;;7.70;99.90;;;;;;5014673;28;20073;-34
2022/11/28 05:24:49;;;;;;;27.50;19.52;;;7.70;99.90;;;;;;5020567;28;20038;-32
2022/11/28 05:27:15;;;;;;;27.83;20.30;;;7.70;99.90;;;;;;5028496;28;20117;-31
2022/11/28 05:29:43;;;;;;;22.85;18.35;;;7.70;99.90;;;;;;5015259;28;20577;-31
2022/11/28 05:32:12;;;;;;;25.55;19.95;;;7.70;99.90;;;;;;5029226;28;20069;-31
2022/11/28 05:34:38;;;;;;;22.55;19.63;;;7.70;99.90;;;;;;5024040;28;20042;-32
2022/11/28 05:37:05;;;;;;;23.63;19.17;;;7.70;99.90;;;;;;5022396;28;20119;-32
2022/11/28 05:39:31;;;;;;;23.83;19.35;;;7.70;99.90;;;;;;5014820;28;21266;-33
2022/11/28 05:41:58;;;;;;;23.00;20.13;;;7.70;99.90;;;;;;5027371;28;20041;-30
2022/11/28 05:44:24;;;;;;;25.80;20.08;;;7.70;99.90;;;;;;5013446;28;20045;-30
2022/11/28 05:46:49;;;;;;;22.83;19.55;;;7.80;99.90;;;;;;5020763;28;20484;-30
2022/11/28 05:49:15;;;;;;;23.70;19.08;;;7.80;99.90;;;;;;5028163;28;20037;-30
2022/11/28 05:51:41;;;;;;;26.80;20.42;;;7.80;99.90;;;;;;5014186;28;20041;-31
2022/11/28 05:54:07;;;;;;;24.38;19.63;;;7.80;99.90;;;;;;5014440;28;20374;-31
2022/11/28 05:56:33;;;;;;;23.50;19.55;;;7.80;99.90;;;;;;5014576;28;20080;-31
2022/11/28 05:58:59;;;;;;;23.35;18.83;;;7.80;99.90;;;;;;5014169;28;20069;-31
2022/11/28 06:01:27;;;;;;;20.55;17.73;;;7.80;99.90;;;;;;5018154;28;20096;-31
2022/11/28 06:03:58;;;;;;;20.85;18.10;;;7.80;99.90;;;;;;5014096;28;20097;-30
2022/11/28 06:06:25;;;;;;;19.70;17.23;;;7.80;99.90;;;;;;5029336;28;20042;-32
2022/11/28 06:08:51;;;;;;;19.27;17.10;;;7.80;99.90;;;;;;5009440;28;20037;-31
2022/11/28 06:11:18;;;;;;;20.17;16.80;;;7.80;99.90;;;;;;5016507;28;20034;-30
2022/11/28 06:13:46;;;;;;;20.67;16.48;;;7.80;99.90;;;;;;5014384;28;20399;-33
2022/11/28 06:16:18;;;;;;;18.95;15.35;;;7.80;99.90;;;;;;5014332;28;20069;-30
2022/11/28 06:18:43;;;;;;;19.77;16.27;;;7.80;99.90;;;;;;5013697;28;20030;-31
2022/11/28 06:21:10;;;;;;;20.40;16.90;;;7.80;99.90;;;;;;5014423;28;20037;-32
2022/11/28 06:23:36;;;;;;;23.02;17.98;;;7.80;99.90;;;;;;5019282;28;20073;-30
2022/11/28 06:26:06;;;;;;;24.05;19.30;;;7.80;99.90;;;;;;5017408;28;20528;-30
2022/11/28 06:28:33;;;;;;;25.63;18.38;;;7.80;99.90;;;;;;5012660;28;20034;-30
2022/11/28 06:30:59;;;;;;;25.25;19.40;;;7.80;99.90;;;;;;5008911;28;20068;-30
2022/11/28 06:33:25;;;;;;;24.52;19.63;;;7.80;99.90;;;;;;5011212;28;20124;-30
2022/11/28 06:35:51;;;;;;;21.25;17.52;;;7.80;99.90;;;;;;5019859;28;20116;-31
2022/11/28 06:38:16;;;;;;;18.50;16.25;;;7.80;99.90;;;;;;5016933;28;20121;-31
2022/11/28 06:40:42;;;;;;;18.13;16.23;;;7.80;99.90;;;;;;5018793;28;20483;-30
2022/11/28 06:43:08;;;;;;;16.98;14.90;;;7.80;99.90;;;;;;5031143;28;20076;-30
2022/11/28 06:45:35;;;;;;;16.45;14.38;;;7.80;99.90;;;;;;5018098;28;20049;-30
2022/11/28 06:48:00;;;;;;;17.38;14.63;;;7.80;99.90;;;;;;5004544;28;20462;-30
2022/11/28 06:50:27;;;;;;;16.30;14.18;;;7.80;99.90;;;;;;5010853;28;20034;-31
2022/11/28 06:52:56;;;;;;;17.83;14.48;;;7.80;99.90;;;;;;5011148;28;20510;-30
2022/11/28 06:55:22;;;;;;;16.50;14.80;;;7.80;99.90;;;;;;5006452;28;20053;-31
2022/11/28 06:57:47;;;;;;;18.50;15.48;;;7.80;99.90;;;;;;5024755;28;20045;-31
2022/11/28 07:00:13;;;;;;;17.25;14.73;;;7.80;99.90;;;;;;5022225;28;20041;-30
2022/11/28 07:02:39;;;;;;;18.42;14.85;;;7.80;99.90;;;;;;5020833;28;20121;-30
2022/11/28 07:05:06;;;;;;;17.77;14.95;;;7.80;99.90;;;;;;5021011;28;20077;-30
2022/11/28 07:07:31;;;;;;;18.63;14.63;;;7.80;99.90;;;;;;5014000;28;20037;-29
2022/11/28 07:09:57;;;;;;;17.63;15.43;;;7.80;99.90;;;;;;5018429;28;20044;-32
2022/11/28 07:12:23;;;;;;;19.85;16.15;;;7.80;99.90;;;;;;5012393;28;20052;-30
2022/11/28 07:14:48;;;;;;;20.45;16.45;;;7.80;99.90;;;;;;5023673;28;20045;-30
2022/11/28 07:17:14;;;;;;;20.90;15.45;;;7.80;99.90;;;;;;5017900;28;20486;-31
2022/11/28 07:19:40;;;;;;;20.67;16.80;;;7.80;99.90;;;;;;5011745;28;20505;-30
2022/11/28 07:22:06;;;;;;;18.90;14.90;;;7.80;99.90;;;;;;5014682;28;20112;-30
2022/11/28 07:24:32;;;;;;;18.98;15.00;;;7.80;99.90;;;;;;5021968;28;20069;-31
2022/11/28 07:26:57;;;;;;;20.10;15.73;;;7.70;99.90;;;;;;5019757;28;20526;-30
2022/11/28 07:29:23;;;;;;;19.05;15.85;;;7.70;99.90;;;;;;5016518;28;20029;-32
2022/11/28 07:31:49;;;;;;;17.58;14.57;;;7.70;99.90;;;;;;5012808;28;20042;-29
2022/11/28 07:34:15;;;;;;;18.95;16.35;;;7.70;99.90;;;;;;5013318;28;20077;-32
2022/11/28 07:36:41;;;;;;;18.92;15.57;;;7.70;99.90;;;;;;5016572;28;20045;-31
2022/11/28 07:39:16;;;;;;;18.42;15.50;;;7.80;99.90;;;;;;5019881;28;20073;-30
2022/11/28 07:41:42;;;;;;;18.02;16.05;;;7.70;99.90;;;;;;5000008;28;20104;-30
2022/11/28 07:44:10;;;;;;;22.17;17.13;;;7.70;99.90;;;;;;5006460;28;20046;-34
2022/11/28 07:46:35;;;;;;;21.00;16.63;;;7.70;99.90;;;;;;5017413;28;20060;-30
2022/11/28 07:49:03;;;;;;;21.30;16.15;;;7.80;99.90;;;;;;5019873;28;20026;-30
2022/11/28 07:51:32;;;;;;;21.13;16.05;;;7.70;99.90;;;;;;5011076;28;20030;-31
2022/11/28 07:53:59;;;;;;;19.40;16.10;;;7.80;99.90;;;;;;5011163;28;20271;-29
2022/11/28 07:56:28;;;;;;;21.35;15.93;;;7.80;99.90;;;;;;5011324;28;20259;-31
2022/11/28 07:58:53;;;;;;;20.17;15.50;;;7.80;99.90;;;;;;4999725;28;20384;-30
2022/11/28 08:01:25;;;;;;;18.23;15.38;;;7.70;99.90;;;;;;5008036;28;20042;-30
2022/11/28 08:03:51;;;;;;;19.20;16.40;;;7.80;99.90;;;;;;5020824;28;20511;-31
2022/11/28 08:06:20;;;;;;;21.15;16.90;;;7.80;99.90;;;;;;5017465;28;20036;-31
2022/11/28 08:08:47;;;;;;;21.58;16.45;;;7.80;99.90;;;;;;5015207;28;20038;-32
2022/11/28 08:11:14;;;;;;;20.27;16.83;;;7.80;99.90;;;;;;5006447;28;20037;-31
2022/11/28 08:13:40;;;;;;;22.48;17.50;;;7.80;99.90;;;;;;5006669;28;20134;-30
2022/11/28 08:16:08;;;;;;;20.90;16.70;;;7.80;99.90;;;;;;5001617;28;20088;-30
2022/11/28 08:18:35;;;;;;;22.30;17.63;;;7.80;99.90;;;;;;5011087;28;20133;-30
2022/11/28 08:21:10;;;;;;;21.95;18.35;;;7.80;99.90;;;;;;5011103;28;20030;-31
2022/11/28 08:23:37;;;;;;;21.02;17.08;;;7.80;99.90;;;;;;5008404;28;20044;-30
2022/11/28 08:26:08;;;;;;;22.25;17.58;;;7.80;99.90;;;;;;5016661;28;20059;-31
2022/11/28 08:28:35;;;;;;;24.20;18.27;;;7.80;99.90;;;;;;5016750;28;20038;-30
2022/11/28 08:31:11;;;;;;;21.13;17.50;;;7.80;99.90;;;;;;5014359;28;20042;-29
2022/11/28 08:33:38;;;;;;;24.05;18.73;;;7.80;99.90;;;;;;5010460;28;20033;-31
2022/11/28 08:36:08;;;;;;;27.77;19.63;;;7.80;99.90;;;;;;5012240;28;20103;-30
2022/11/28 08:38:36;;;;;;;21.63;18.67;;;7.80;99.90;;;;;;5010842;28;20056;-32
2022/11/28 08:41:13;;;;;;;21.52;18.17;;;7.80;99.90;;;;;;5007127;28;20046;-30
2022/11/28 08:43:39;;;;;;;23.77;18.88;;;7.80;99.90;;;;;;5005663;28;20069;-32
2022/11/28 08:46:09;;;;;;;24.02;18.58;;;7.80;99.90;;;;;;5028389;28;20550;-31
2022/11/28 08:48:36;;;;;;;25.63;19.85;;;7.80;99.90;;;;;;5011057;28;20177;-30
2022/11/28 08:51:02;;;;;;;22.83;18.85;;;7.80;99.90;;;;;;4997228;28;20038;-30
2022/11/28 08:53:28;;;;;;;24.52;19.30;;;7.80;99.90;;;;;;5011171;28;20582;-31
2022/11/28 08:55:54;;;;;;;22.33;18.48;;;7.80;99.90;;;;;;5012414;28;20157;-31
2022/11/28 08:58:20;;;;;;;22.92;18.13;;;7.90;99.90;;;;;;5014783;28;20033;-31
2022/11/28 09:00:46;;;;;;;24.52;18.92;;;7.90;99.90;;;;;;5028367;28;20041;-30
2022/11/28 09:03:17;;;;;;;25.23;19.48;;;7.90;99.90;;;;;;5019118;28;20065;-32
2022/11/28 09:05:44;;;;;;;24.88;19.33;;;7.90;99.90;;;;;;5014819;28;20038;-31
2022/11/28 09:08:12;;;;;;;23.10;18.83;;;7.80;99.90;;;;;;5011074;28;20034;-31
2022/11/28 09:10:40;;;;;;;22.88;19.27;;;7.90;99.90;;;;;;4995996;28;20038;-32
2022/11/28 09:13:07;;;;;;;25.25;19.67;;;7.80;99.90;;;;;;5027485;28;20037;-29
2022/11/28 09:15:33;;;;;;;22.75;18.35;;;7.90;99.90;;;;;;5014431;28;20120;-31
2022/11/28 09:17:59;;;;;;;23.23;17.88;;;7.90;99.90;;;;;;5014652;28;20104;-30
2022/11/28 09:20:26;;;;;;;23.40;19.55;;;7.90;99.90;;;;;;5011369;28;20046;-31
2022/11/28 09:22:52;;;;;;;21.05;17.92;;;7.90;99.90;;;;;;5005227;28;20034;-31
2022/11/28 09:25:18;;;;;;;23.00;18.45;;;7.90;99.90;;;;;;5020515;28;20049;-30
2022/11/28 09:27:44;;;;;;;25.50;20.45;;;7.90;99.90;;;;;;5006937;28;20037;-40
2022/11/28 09:30:10;;;;;;;23.58;18.98;;;7.90;99.90;;;;;;5001134;28;20077;-31
2022/11/28 09:32:36;;;;;;;25.85;19.73;;;7.90;99.90;;;;;;5011131;28;20045;-31
2022/11/28 09:35:02;;;;;;;22.25;18.40;;;7.90;99.90;;;;;;5013810;28;20030;-31
2022/11/28 09:37:28;;;;;;;25.67;20.45;;;8.00;99.90;;;;;;5023710;28;20450;-32
2022/11/28 09:39:54;;;;;;;24.13;20.33;;;8.00;99.90;;;;;;5013258;28;20034;-30
2022/11/28 09:42:23;;;;;;;23.10;18.92;;;7.90;99.90;;;;;;5030337;28;20052;-30
2022/11/28 09:45:01;;;;;;;24.95;20.45;;;8.00;99.90;;;;;;5017496;28;20133;-30
2022/11/28 09:47:33;;;;;;;24.35;19.30;;;8.00;99.90;;;;;;5011780;28;20395;-31
2022/11/28 09:50:10;;;;;;;26.05;19.60;;;8.00;99.90;;;;;;5012925;28;20092;-30
2022/11/28 09:52:40;;;;;;;23.13;18.90;;;8.00;99.90;;;;;;5016463;28;20308;-31
2022/11/28 09:55:06;;;;;;;24.13;18.23;;;8.00;99.90;;;;;;5002390;28;20049;-31
2022/11/28 09:57:39;;;;;;;24.02;17.92;;;8.00;99.90;;;;;;5007092;28;20047;-30
2022/11/28 10:00:16;;;;;;;23.48;18.73;;;8.00;99.90;;;;;;5011846;28;20044;-30
2022/11/28 10:03:20;;;;;;;22.38;17.98;;;8.00;99.90;;;;;;5013314;28;20056;-30
2022/11/28 10:05:58;;;;;;;22.75;18.13;;;8.00;99.90;;;;;;5010843;28;20457;-30
2022/11/28 10:08:49;;;;;;;19.13;16.60;;;8.00;99.90;;;;;;5006322;28;20034;-31
2022/11/28 10:11:24;;;;;;;22.30;17.73;;;8.00;99.90;;;;;;5012982;28;20034;-32
2022/11/28 10:14:29;;;;;;;21.35;17.23;;;8.10;99.90;;;;;;5005301;28;20038;-31
2022/11/28 10:17:09;;;;;;;23.38;17.65;;;8.10;99.90;;;;;;5020648;28;20089;-31
2022/11/28 10:19:48;;;;;;;20.05;17.48;;;8.10;99.90;;;;;;5022614;28;20034;-31
2022/11/28 10:22:19;;;;;;;20.17;16.42;;;8.20;99.90;;;;;;5022698;28;20044;-31
2022/11/28 10:24:58;;;;;;;20.83;17.67;;;8.20;99.90;;;;;;5012640;28;20120;-32
2022/11/28 10:27:32;;;;;;;20.27;17.17;;;8.20;99.90;;;;;;5019018;28;20050;-30
2022/11/28 10:30:17;;;;;;;20.60;17.63;;;8.20;99.90;;;;;;5012398;28;20034;-31
2022/11/28 10:32:52;;;;;;;22.90;17.30;;;8.30;99.90;;;;;;5006146;28;20524;-30
2022/11/28 10:35:29;;;;;;;19.13;15.70;;;8.30;99.90;;;;;;5016691;28;20099;-31
2022/11/28 10:37:56;;;;;;;18.77;15.40;;;8.30;99.90;;;;;;5020452;28;20033;-31
2022/11/28 10:40:49;;;;;;;20.13;17.25;;;8.30;99.90;;;;;;5020002;28;20496;-30
2022/11/28 10:43:52;;;;;;;18.48;15.52;;;8.30;99.90;;;;;;4993537;28;20053;-31
2022/11/28 10:46:55;;;;;;;17.33;15.45;;;8.40;99.90;;;;;;5015016;28;20081;-30
2022/11/28 10:49:30;;;;;;;15.70;13.90;;;8.40;99.90;;;;;;4999180;28;20304;-30
2022/11/28 10:52:19;;;;;;;18.17;16.30;;;8.30;99.90;;;;;;5017565;28;20053;-30
2022/11/28 10:55:11;;;;;;;17.83;16.05;;;8.30;99.90;;;;;;5015982;28;20068;-30
2022/11/28 10:58:04;;;;;;;19.92;17.85;;;8.40;99.90;;;;;;5013882;28;20131;-31
2022/11/28 11:00:30;;;;;;;18.70;16.52;;;8.40;99.90;;;;;;5010157;28;20029;-31
2022/11/28 11:03:01;;;;;;;19.92;17.92;;;8.40;99.90;;;;;;5010247;28;20041;-30
2022/11/28 11:05:30;;;;;;;20.33;17.85;;;8.30;99.90;;;;;;5013578;28;20121;-30
2022/11/28 11:08:25;;;;;;;19.73;17.67;;;8.30;99.90;;;;;;5011244;28;20480;-31
2022/11/28 11:10:57;;;;;;;18.40;16.58;;;8.30;99.90;;;;;;5009174;28;20081;-29
2022/11/28 11:13:29;;;;;;;20.00;17.85;;;8.30;99.90;;;;;;5017397;28;20047;-31
2022/11/28 11:16:04;;;;;;;17.02;15.32;;;8.40;99.90;;;;;;5011852;28;20100;-30
2022/11/28 11:18:37;;;;;;;16.08;14.38;;;8.40;99.90;;;;;;5011321;28;20038;-30
2022/11/28 11:21:14;;;;;;;14.60;13.15;;;8.40;99.90;;;;;;5011801;28;20049;-31
2022/11/28 11:23:39;;;;;;;15.82;14.23;;;8.40;99.90;;;;;;5011862;28;20045;-31
2022/11/28 11:26:09;;;;;;;14.95;12.82;;;8.40;99.90;;;;;;5019211;28;20514;-30
2022/11/28 11:28:41;;;;;;;16.58;14.77;;;8.40;99.90;;;;;;5025455;28;20056;-31
2022/11/28 11:31:48;;;;;;;16.38;14.60;;;8.40;99.90;;;;;;5018673;28;20112;-30
2022/11/28 11:34:20;;;;;;;18.55;15.50;;;8.40;99.90;;;;;;5009343;28;20053;-33
2022/11/28 11:36:47;;;;;;;18.40;14.98;;;8.40;99.90;;;;;;5028150;28;20453;-30
2022/11/28 11:39:12;;;;;;;18.15;15.80;;;8.40;99.90;;;;;;5014223;28;20069;-30
2022/11/28 11:41:43;;;;;;;16.90;15.07;;;8.40;99.90;;;;;;5017965;28;20071;-31
2022/11/28 11:44:12;;;;;;;15.25;13.60;;;8.40;99.90;;;;;;5020395;28;20069;-31
2022/11/28 11:47:02;;;;;;;14.50;12.98;;;8.40;99.90;;;;;;5001075;28;20092;-31
2022/11/28 11:49:28;;;;;;;15.45;13.05;;;8.40;99.90;;;;;;5026411;28;20271;-31
2022/11/28 11:52:13;;;;;;;16.73;13.27;;;8.40;99.90;;;;;;5011439;28;20125;-31
2022/11/28 11:54:58;;;;;;;15.23;13.20;;;8.40;99.90;;;;;;5015159;28;20041;-31
2022/11/28 11:57:25;;;;;;;16.55;14.45;;;8.40;99.90;;;;;;5013019;28;20064;-31
2022/11/28 11:59:59;;;;;;;15.73;13.80;;;8.40;99.90;;;;;;5008885;28;20473;-30
2022/11/28 12:02:47;;;;;;;16.42;14.25;;;8.40;99.90;;;;;;5010314;28;20038;-31
2022/11/28 12:05:16;;;;;;;15.50;13.90;;;8.40;99.90;;;;;;5010422;28;20034;-30
2022/11/28 12:08:00;;;;;;;13.95;12.45;;;8.40;99.90;;;;;;5011011;28;20042;-31
2022/11/28 12:10:28;;;;;;;;;;;8.40;99.90;;;;;;5011245;28;20038;-30
2022/11/28 12:12:54;;;;;;;14.25;12.75;;;8.40;99.90;;;;;;5012205;28;19918;-31
2022/11/28 12:15:29;;;;;;;14.68;13.15;;;8.40;99.90;;;;;;5011935;28;20049;-31
2022/11/28 12:18:01;;;;;;;14.38;12.65;;;8.40;99.90;;;;;;5013671;28;20041;-32
2022/11/28 12:20:42;;;;;;;15.27;13.18;;;8.30;99.90;;;;;;5029780;28;20041;-31
2022/11/28 12:23:24;;;;;;;14.75;13.13;;;8.40;99.90;;;;;;5021935;28;20499;-30
2022/11/28 12:26:21;;;;;;;15.52;12.65;;;8.40;99.90;;;;;;5011856;28;20041;-30
2022/11/28 12:29:17;;;;;;;15.95;14.25;;;8.40;99.90;;;;;;4986744;28;20086;-29
2022/11/28 12:32:08;;;;;;;13.70;12.20;;;8.40;99.90;;;;;;4995045;28;20042;-30
2022/11/28 12:34:53;;;;;;;13.85;12.13;;;8.40;99.90;;;;;;5007296;28;20112;-30
2022/11/28 12:37:39;;;;;;;14.50;12.75;;;8.40;99.90;;;;;;5014771;28;20499;-31
2022/11/28 12:40:14;;;;;;;14.63;13.13;;;8.40;99.90;;;;;;5027007;28;20457;-30
2022/11/28 12:42:51;;;;;;;14.18;12.68;;;8.40;99.90;;;;;;4997404;28;20050;-31
2022/11/28 12:45:53;;;;;;;15.10;12.40;;;8.40;99.90;;;;;;5014482;28;20104;-31
2022/11/28 12:48:30;;;;;;;14.45;12.98;;;8.40;99.90;;;;;;5011861;28;20045;-30
2022/11/28 12:51:19;;;;;;;15.75;14.15;;;8.40;99.90;;;;;;5010064;28;20038;-31
2022/11/28 12:53:58;;;;;;;17.85;15.75;;;8.40;99.90;;;;;;5018723;28;20041;-30
2022/11/28 12:56:50;;;;;;;14.98;13.38;;;8.40;99.90;;;;;;5024180;28;20100;-31
2022/11/28 12:59:45;;;;;;;19.02;17.13;;;8.50;99.90;;;;;;5014069;28;20046;-31
2022/11/28 13:02:47;;;;;;;16.65;14.95;;;8.40;99.90;;;;;;4999768;28;20128;-32
2022/11/28 13:05:19;;;;;;;13.98;12.60;;;8.40;99.90;;;;;;5014397;28;20555;-31
2022/11/28 13:08:00;;;;;;;14.45;12.23;;;8.40;99.90;;;;;;5021274;28;20088;-31
2022/11/28 13:10:48;;;;;;;12.82;11.52;;;8.40;99.90;;;;;;5014099;28;20034;-31